4Y4 weather

Lakes of the North Airport
Gaylord, Michigan, United States

Public forecast

Using degrees Fahrenheit for public forecast. Weather courtesy of forecast.io.

Closest aviation weather report (METAR) to Lakes of the North Airport

Closest report is Gaylord Regional Airport, 9.5 nm (17.6 km) NE. Retrieved 2019/10/16 06:11 UTC (0 seconds ago):

KGLR 160611Z AUTO 19003KT 2 1/2SM BR OVC004 08/07 A2958 RMK AO2 T00780072

Closest aviation forecast (TAF) to Lakes of the North Airport

Closest forecast is Cherry Capital Airport, 31.8 nm (58.8 km) WSW. Retrieved 2019/10/16 06:24 UTC (0 seconds ago):

TAF KTVC 160523Z 1606/1706 23006KT P6SM OVC014 FM160800 25007KT P6SM OVC009 FM161200 33015G25KT 3SM -SHRA BR OVC007 FM161500 33017G31KT 5SM -SHRA BR OVC011 FM170100 34016G25KT P6SM -SHRA OVC020 FM170300 34013G21KT P6SM OVC024